createdAt,value
2019-04-04T00:01:06.452Z,52.70
2019-04-04T00:03:36.444Z,52.80
2019-04-04T00:06:06.815Z,52.60
2019-04-04T00:08:36.888Z,52.50
2019-04-04T00:11:06.984Z,52.50
2019-04-04T00:13:37.130Z,52.40
2019-04-04T00:16:07.228Z,52.60
2019-04-04T00:18:37.265Z,52.30
2019-04-04T00:21:07.291Z,52.30
2019-04-04T00:23:38.095Z,52.40
2019-04-04T00:26:10.538Z,52.40
2019-04-04T00:28:40.327Z,52.60
2019-04-04T00:31:10.370Z,52.30
2019-04-04T00:33:40.869Z,52.60
2019-04-04T00:36:10.944Z,52.60
2019-04-04T00:38:41.953Z,52.40
2019-04-04T00:41:13.019Z,52.40
2019-04-04T00:43:43.573Z,52.40
2019-04-04T00:46:13.955Z,52.30
2019-04-04T00:48:45.348Z,52.30
2019-04-04T00:51:15.282Z,52.50
2019-04-04T00:53:45.263Z,52.60
2019-04-04T00:56:16.060Z,52.50
2019-04-04T00:58:47.253Z,52.40
2019-04-04T01:01:17.511Z,52.30
2019-04-04T01:03:47.867Z,52.40
2019-04-04T01:06:17.908Z,52.60
2019-04-04T01:08:47.889Z,52.40
2019-04-04T01:11:18.348Z,53.00
2019-04-04T01:13:49.679Z,52.60
2019-04-04T01:16:19.668Z,52.70
2019-04-04T01:18:49.909Z,52.60
2019-04-04T01:21:22.166Z,52.50
2019-04-04T01:23:51.979Z,52.80
2019-04-04T01:26:22.016Z,52.80
2019-04-04T01:28:53.150Z,52.60
2019-04-04T01:31:23.268Z,52.50
2019-04-04T01:33:53.645Z,52.60
2019-04-04T01:36:25.325Z,52.90
2019-04-04T01:38:55.841Z,52.80
2019-04-04T01:41:25.882Z,52.90
2019-04-04T01:44:04.999Z,52.70
2019-04-04T01:46:27.669Z,52.70
2019-04-04T01:48:57.662Z,52.90
2019-04-04T01:51:27.694Z,53.00
2019-04-04T01:53:59.003Z,53.00
2019-04-04T01:56:29.791Z,52.90
2019-04-04T01:59:00.053Z,52.90
2019-04-04T02:01:30.074Z,52.80
2019-04-04T02:04:00.582Z,53.30
2019-04-04T02:06:30.576Z,52.90
2019-04-04T02:09:02.466Z,53.20
2019-04-04T02:11:33.645Z,53.10
2019-04-04T02:14:03.566Z,53.10
2019-04-04T02:16:33.597Z,53.20
2019-04-04T02:19:03.577Z,53.40
2019-04-04T02:21:34.077Z,53.30
2019-04-04T02:24:04.128Z,53.30
2019-04-04T02:26:36.176Z,53.10
2019-04-04T02:29:05.842Z,53.20
2019-04-04T02:31:40.579Z,53.30
2019-04-04T02:34:10.676Z,53.30
2019-04-04T02:36:40.812Z,53.20
2019-04-04T02:39:12.661Z,53.40
2019-04-04T02:41:47.558Z,53.60
2019-04-04T02:44:14.884Z,53.60
2019-04-04T02:46:45.813Z,53.60
2019-04-04T02:49:16.168Z,53.80
2019-04-04T02:51:46.532Z,53.70
2019-04-04T02:54:17.151Z,54.00
2019-04-04T02:56:47.808Z,54.50
2019-04-04T02:59:21.585Z,55.00
2019-04-04T03:01:51.477Z,55.40
2019-04-04T03:04:21.445Z,55.20
2019-04-04T03:06:51.474Z,54.30
2019-04-04T03:09:21.707Z,54.80
2019-04-04T03:11:54.081Z,55.60
2019-04-04T03:14:23.913Z,54.90
2019-04-04T03:16:56.304Z,55.20
2019-04-04T03:19:26.196Z,55.60
2019-04-04T03:21:56.279Z,55.90
2019-04-04T03:24:26.621Z,55.60
2019-04-04T03:26:56.753Z,55.60
2019-04-04T03:29:26.998Z,55.70
2019-04-04T03:31:57.961Z,56.00
2019-04-04T03:34:28.063Z,55.60
2019-04-04T03:36:58.091Z,55.40
2019-04-04T03:39:28.183Z,55.20
2019-04-04T03:41:58.441Z,55.40
2019-04-04T03:44:28.570Z,55.40
2019-04-04T03:46:58.751Z,55.70
2019-04-04T03:49:28.791Z,55.60
2019-04-04T03:52:00.299Z,56.00
2019-04-04T03:54:30.319Z,55.10
2019-04-04T03:57:00.407Z,55.40
2019-04-04T03:59:32.513Z,55.60
2019-04-04T04:02:02.311Z,55.70
2019-04-04T04:04:32.276Z,55.50
2019-04-04T04:07:02.271Z,55.60
2019-04-04T04:09:32.210Z,55.60
2019-04-04T04:12:02.195Z,55.50
2019-04-04T04:14:32.245Z,55.50
2019-04-04T04:17:02.247Z,55.40
2019-04-04T04:19:32.390Z,55.40
2019-04-04T04:22:02.412Z,55.40
2019-04-04T04:24:32.380Z,54.80
2019-04-04T04:27:02.684Z,55.20
2019-04-04T04:29:34.454Z,55.40
2019-04-04T04:32:04.881Z,54.80
2019-04-04T04:34:35.124Z,54.40
2019-04-04T04:37:05.201Z,54.60
2019-04-04T04:39:40.825Z,55.00
2019-04-04T04:42:07.433Z,54.90
2019-04-04T04:44:39.044Z,54.00
2019-04-04T04:47:10.240Z,54.20
2019-04-04T04:49:41.145Z,53.90
2019-04-04T04:52:14.210Z,54.30
2019-04-04T04:54:43.193Z,54.60
2019-04-04T04:57:28.427Z,54.50
2019-04-04T04:59:45.193Z,54.70
2019-04-04T05:02:15.263Z,54.90
2019-04-04T05:04:45.190Z,54.40
2019-04-04T05:07:15.279Z,54.60
2019-04-04T05:09:45.283Z,54.70
2019-04-04T05:12:15.328Z,54.50
2019-04-04T05:14:45.606Z,54.20
2019-04-04T05:17:15.651Z,54.90
2019-04-04T05:19:45.663Z,55.00
2019-04-04T05:22:15.654Z,54.70
2019-04-04T05:24:49.134Z,54.90
2019-04-04T05:27:18.187Z,54.70
2019-04-04T05:29:48.557Z,55.00
2019-04-04T05:32:21.073Z,54.70
2019-04-04T05:34:50.343Z,55.20
2019-04-04T05:37:20.684Z,54.80
2019-04-04T05:39:51.536Z,55.00
2019-04-04T05:42:22.122Z,54.50
2019-04-04T05:44:52.051Z,54.50
2019-04-04T05:47:23.280Z,55.10
2019-04-04T05:49:53.825Z,54.80
2019-04-04T05:52:23.913Z,54.40
2019-04-04T05:54:53.950Z,54.30
2019-04-04T05:57:24.879Z,54.70
2019-04-04T05:59:56.066Z,55.00
2019-04-04T06:02:26.699Z,55.20
2019-04-04T06:04:56.628Z,54.80
2019-04-04T06:07:26.551Z,54.60
2019-04-04T06:09:56.530Z,54.10
2019-04-04T06:12:26.835Z,54.70
2019-04-04T06:14:56.885Z,54.70
2019-04-04T06:17:27.044Z,54.40
2019-04-04T06:19:57.082Z,54.80
2019-04-04T06:22:27.098Z,54.20
2019-04-04T06:24:59.314Z,55.00
2019-04-04T06:27:29.154Z,55.30
2019-04-04T06:29:59.237Z,54.90
2019-04-04T06:32:31.034Z,54.90
2019-04-04T06:35:01.271Z,54.70
2019-04-04T06:37:34.069Z,54.90
2019-04-04T06:40:03.324Z,54.70
2019-04-04T06:42:36.252Z,54.50
2019-04-04T06:45:05.762Z,54.30
2019-04-04T06:47:35.968Z,54.80
2019-04-04T06:50:08.023Z,54.70
2019-04-04T06:52:38.173Z,54.70
2019-04-04T06:55:08.291Z,54.30
2019-04-04T06:57:38.199Z,54.40
2019-04-04T07:00:08.523Z,54.20
2019-04-04T07:02:38.554Z,54.70
2019-04-04T07:05:10.542Z,54.30
2019-04-04T07:07:43.127Z,54.50
2019-04-04T07:10:13.083Z,54.20
2019-04-04T07:12:43.423Z,54.30
2019-04-04T07:15:16.038Z,54.90
2019-04-04T07:17:45.504Z,54.70
2019-04-04T07:20:17.110Z,54.50
2019-04-04T07:22:47.181Z,54.30
2019-04-04T07:25:17.561Z,54.40
2019-04-04T07:27:48.072Z,54.30
2019-04-04T07:30:19.645Z,54.70
2019-04-04T07:32:49.694Z,54.40
2019-04-04T07:35:21.062Z,54.90
2019-04-04T07:37:56.641Z,54.60
2019-04-04T07:40:23.499Z,54.50
2019-04-04T07:42:53.456Z,54.40
2019-04-04T07:45:26.717Z,54.20
2019-04-04T07:47:56.109Z,54.40
2019-04-04T07:50:27.111Z,54.50
2019-04-04T07:52:57.424Z,54.50
2019-04-04T07:55:27.714Z,54.50
2019-04-04T07:57:58.663Z,55.30
2019-04-04T08:00:28.830Z,54.70
2019-04-04T08:02:58.775Z,54.80
2019-04-04T08:05:28.841Z,54.30
2019-04-04T08:07:58.878Z,54.40
2019-04-04T08:10:28.850Z,54.70
2019-04-04T08:12:59.211Z,54.60
2019-04-04T08:15:29.710Z,54.00
2019-04-04T08:18:00.138Z,54.30
2019-04-04T08:20:30.644Z,54.00
2019-04-04T08:23:00.787Z,54.70
2019-04-04T08:25:31.176Z,54.50
2019-04-04T08:28:01.193Z,53.90
2019-04-04T08:30:31.399Z,54.00
2019-04-04T08:33:01.451Z,53.60
2019-04-04T08:35:31.896Z,54.00
2019-04-04T08:38:02.014Z,53.70
2019-04-04T08:40:32.450Z,54.10
2019-04-04T08:43:02.470Z,53.50
2019-04-04T08:45:33.011Z,53.50
2019-04-04T08:48:03.248Z,54.20
2019-04-04T08:50:33.753Z,54.10
2019-04-04T08:53:04.816Z,54.00
2019-04-04T08:55:34.859Z,53.90
2019-04-04T08:58:05.206Z,54.20
2019-04-04T09:00:35.253Z,53.80
2019-04-04T09:03:05.258Z,54.40
2019-04-04T09:05:35.282Z,54.00
2019-04-04T09:08:06.113Z,53.90
2019-04-04T09:10:36.992Z,54.50
2019-04-04T09:13:07.009Z,54.40
2019-04-04T09:15:37.610Z,54.00
2019-04-04T09:18:08.413Z,52.90
2019-04-04T09:20:38.651Z,53.60
2019-04-04T09:23:08.921Z,52.70
2019-04-04T09:25:40.838Z,53.40
2019-04-04T09:28:11.086Z,53.40
2019-04-04T09:30:41.740Z,52.90
2019-04-04T09:33:12.099Z,53.10
2019-04-04T09:35:42.157Z,52.80
2019-04-04T09:38:12.371Z,52.30
2019-04-04T09:40:42.549Z,52.10
2019-04-04T09:43:13.152Z,52.00
2019-04-04T09:45:43.623Z,52.10
2019-04-04T09:48:13.592Z,51.90
2019-04-04T09:50:43.672Z,52.10
2019-04-04T09:53:14.134Z,52.10
2019-04-04T09:55:44.535Z,52.20
2019-04-04T09:58:14.705Z,52.40
2019-04-04T10:00:45.290Z,52.20
2019-04-04T10:03:15.308Z,52.40
2019-04-04T10:05:45.613Z,52.40
2019-04-04T10:08:15.676Z,52.10
2019-04-04T10:10:46.082Z,52.10
2019-04-04T10:13:16.030Z,52.50
2019-04-04T10:15:46.088Z,52.50
2019-04-04T10:18:16.025Z,52.30
2019-04-04T10:20:46.033Z,52.20
2019-04-04T10:23:16.072Z,52.30
2019-04-04T10:25:46.830Z,52.40
2019-04-04T10:28:16.959Z,52.50
2019-04-04T10:30:47.194Z,52.80
2019-04-04T10:33:17.118Z,52.40
2019-04-04T10:35:47.361Z,52.40
2019-04-04T10:38:17.903Z,52.20
2019-04-04T10:40:47.818Z,52.30
2019-04-04T10:43:17.813Z,52.40
2019-04-04T10:45:48.135Z,52.20
2019-04-04T10:48:18.556Z,52.10
2019-04-04T10:50:48.581Z,52.10
2019-04-04T10:53:18.688Z,52.10
2019-04-04T10:55:48.719Z,52.10
2019-04-04T10:58:18.746Z,51.90
2019-04-04T11:00:49.177Z,52.00
2019-04-04T11:03:19.530Z,52.00
2019-04-04T11:05:49.532Z,51.90
2019-04-04T11:08:19.682Z,51.80
2019-04-04T11:10:50.346Z,52.00
2019-04-04T11:13:32.977Z,51.90
2019-04-04T11:15:52.297Z,51.80
2019-04-04T11:18:22.279Z,51.70
2019-04-04T11:20:52.353Z,52.00
2019-04-04T11:23:22.676Z,51.80
2019-04-04T11:25:52.720Z,51.80
2019-04-04T11:28:22.945Z,51.60
2019-04-04T11:30:52.995Z,51.50
2019-04-04T11:33:22.998Z,51.40
2019-04-04T11:35:53.020Z,51.50
2019-04-04T11:38:23.003Z,51.30
2019-04-04T11:40:53.041Z,51.20
2019-04-04T11:43:23.403Z,51.20
2019-04-04T11:45:53.384Z,51.20
2019-04-04T11:48:23.618Z,51.10
2019-04-04T11:50:53.904Z,51.00
2019-04-04T11:53:23.931Z,51.40
2019-04-04T11:55:54.089Z,51.50
2019-04-04T11:58:24.221Z,51.30
2019-04-04T12:00:56.221Z,51.80
2019-04-04T12:03:26.737Z,51.60
2019-04-04T12:05:56.673Z,51.50
2019-04-04T12:08:27.329Z,51.20
2019-04-04T12:10:57.692Z,51.40
2019-04-04T12:13:27.731Z,51.10
2019-04-04T12:15:57.933Z,51.20
2019-04-04T12:18:28.479Z,52.10
2019-04-04T12:20:58.431Z,51.20
2019-04-04T12:23:28.548Z,51.00
2019-04-04T12:25:59.032Z,51.60
2019-04-04T12:28:29.065Z,51.60
2019-04-04T12:30:59.207Z,52.50
2019-04-04T12:33:29.198Z,51.80
2019-04-04T12:35:59.254Z,51.60
2019-04-04T12:38:29.771Z,51.60
2019-04-04T12:41:00.162Z,52.00
2019-04-04T12:43:31.155Z,51.30
2019-04-04T12:46:01.258Z,51.90
2019-04-04T12:48:31.708Z,51.70
2019-04-04T12:51:02.617Z,52.20
2019-04-04T12:53:37.456Z,51.70
2019-04-04T12:56:07.810Z,52.20
2019-04-04T12:58:37.810Z,52.00
2019-04-04T13:01:08.198Z,52.10
2019-04-04T13:03:38.582Z,52.50
2019-04-04T13:06:08.556Z,52.50
2019-04-04T13:08:39.266Z,52.60
2019-04-04T13:11:09.630Z,52.80
2019-04-04T13:13:39.598Z,52.20
2019-04-04T13:16:09.624Z,51.60
2019-04-04T13:18:39.692Z,51.60
2019-04-04T13:21:09.973Z,52.10
2019-04-04T13:23:41.092Z,52.20
2019-04-04T13:26:12.251Z,51.80
2019-04-04T13:28:42.260Z,51.90
2019-04-04T13:31:12.908Z,51.50
2019-04-04T13:33:42.942Z,51.40
2019-04-04T13:36:12.986Z,50.80
2019-04-04T13:38:43.356Z,50.90
2019-04-04T13:41:21.838Z,50.50
2019-04-04T13:43:48.971Z,50.10
2019-04-04T13:46:19.348Z,50.70
2019-04-04T13:48:49.370Z,50.60
2019-04-04T13:51:21.075Z,50.70
2019-04-04T13:53:51.429Z,50.60
2019-04-04T13:56:25.018Z,50.50
2019-04-04T13:59:01.003Z,50.50
2019-04-04T14:01:30.080Z,50.30
2019-04-04T14:04:00.993Z,50.10
2019-04-04T14:06:32.341Z,50.20
2019-04-04T14:09:03.468Z,50.40
2019-04-04T14:11:35.732Z,50.10
2019-04-04T14:14:06.171Z,50.10
2019-04-04T14:16:40.554Z,49.90
2019-04-04T14:19:10.666Z,50.20
2019-04-04T14:21:41.513Z,50.40
2019-04-04T14:24:13.988Z,50.60
2019-04-04T14:26:45.910Z,51.00
2019-04-04T14:29:26.822Z,50.90
2019-04-04T14:31:47.698Z,50.80
2019-04-04T14:34:18.766Z,50.90
2019-04-04T14:36:49.514Z,50.70
2019-04-04T14:39:22.164Z,50.40
2019-04-04T14:41:52.605Z,50.40
2019-04-04T14:44:22.576Z,50.30
2019-04-04T14:46:53.035Z,50.00
2019-04-04T14:49:27.608Z,50.20
2019-04-04T14:51:58.572Z,50.00
2019-04-04T14:54:29.282Z,50.00
2019-04-04T14:57:00.604Z,50.20
2019-04-04T14:59:31.974Z,50.30
2019-04-04T15:02:02.270Z,50.30
2019-04-04T15:04:32.966Z,50.30
2019-04-04T15:07:02.995Z,50.30
2019-04-04T15:09:32.986Z,50.30
2019-04-04T15:12:03.749Z,50.30
2019-04-04T15:14:33.794Z,50.30
2019-04-04T15:17:04.941Z,50.20
2019-04-04T15:19:35.257Z,50.50
2019-04-04T15:22:05.235Z,50.40
2019-04-04T15:24:35.579Z,50.40
2019-04-04T15:27:06.389Z,50.40
2019-04-04T15:29:36.613Z,50.60
2019-04-04T15:32:07.437Z,50.50
2019-04-04T15:34:37.549Z,50.40
2019-04-04T15:37:07.865Z,50.50
2019-04-04T15:39:37.892Z,50.70
2019-04-04T15:42:08.275Z,50.70
2019-04-04T15:44:38.331Z,50.90
2019-04-04T15:47:08.639Z,50.90
2019-04-04T15:49:39.133Z,50.80
2019-04-04T15:52:09.900Z,51.40
2019-04-04T15:54:40.338Z,51.30
2019-04-04T15:57:10.508Z,51.20
2019-04-04T15:59:40.562Z,51.90
2019-04-04T16:02:10.563Z,51.20
2019-04-04T16:04:40.855Z,51.20
2019-04-04T16:07:12.311Z,51.10
2019-04-04T16:09:42.335Z,51.20
2019-04-04T16:12:12.511Z,51.20
2019-04-04T16:14:43.411Z,51.30
2019-04-04T16:17:13.424Z,51.40
2019-04-04T16:19:43.411Z,51.40
2019-04-04T16:22:13.855Z,51.50
2019-04-04T16:24:43.870Z,51.50
2019-04-04T16:27:14.540Z,51.40
2019-04-04T16:29:44.833Z,51.50
2019-04-04T16:32:15.259Z,51.70
2019-04-04T16:34:45.261Z,51.70
2019-04-04T16:37:15.817Z,51.70
2019-04-04T16:39:45.787Z,51.80
2019-04-04T16:42:15.861Z,52.00
2019-04-04T16:44:46.177Z,51.90
2019-04-04T16:47:16.176Z,52.00
2019-04-04T16:49:46.299Z,52.00
2019-04-04T16:52:16.264Z,52.20
2019-04-04T16:54:46.239Z,52.00
2019-04-04T16:57:16.567Z,51.90
2019-04-04T16:59:46.935Z,51.90
2019-04-04T17:02:16.933Z,51.90
2019-04-04T17:04:47.900Z,51.60
2019-04-04T17:07:18.268Z,51.60
2019-04-04T17:09:48.790Z,51.70
2019-04-04T17:12:18.776Z,51.70
2019-04-04T17:14:48.800Z,51.60
2019-04-04T17:17:19.159Z,51.40
2019-04-04T17:19:49.106Z,51.60
2019-04-04T17:22:19.039Z,51.40
2019-04-04T17:24:49.037Z,51.40
2019-04-04T17:27:19.328Z,51.30
2019-04-04T17:29:49.800Z,51.30
2019-04-04T17:32:20.164Z,51.40
2019-04-04T17:34:50.323Z,51.50
2019-04-04T17:37:20.341Z,51.30
2019-04-04T17:39:50.408Z,51.20
2019-04-04T17:42:29.651Z,51.20
2019-04-04T17:44:52.881Z,51.40
2019-04-04T17:47:23.198Z,51.60
2019-04-04T17:49:53.679Z,51.70
2019-04-04T17:52:24.307Z,51.50
2019-04-04T17:54:54.786Z,51.50
2019-04-04T17:57:25.055Z,51.70
2019-04-04T17:59:55.061Z,51.50
2019-04-04T18:02:25.561Z,51.60
2019-04-04T18:04:55.883Z,51.50
2019-04-04T18:07:27.255Z,51.50
2019-04-04T18:09:57.232Z,51.60
2019-04-04T18:12:39.244Z,51.60
2019-04-04T18:14:59.711Z,51.50
2019-04-04T18:19:41.892Z,53.00
2019-04-04T18:22:14.213Z,51.60
2019-04-04T18:24:45.660Z,51.00
2019-04-04T18:27:17.031Z,50.10
2019-04-04T18:29:48.406Z,47.00
2019-04-04T18:32:20.235Z,44.60
2019-04-04T18:34:52.229Z,43.00
2019-04-04T18:37:24.264Z,41.50
2019-04-04T18:39:56.401Z,43.20
2019-04-04T18:42:27.975Z,44.30
2019-04-04T18:45:00.054Z,45.10
2019-04-04T18:47:31.301Z,45.70
2019-04-04T18:50:03.197Z,46.40
2019-04-04T18:52:35.318Z,46.70
2019-04-04T18:55:19.104Z,47.00
2019-04-04T18:57:41.263Z,47.30
2019-04-04T19:00:12.988Z,47.70
2019-04-04T19:02:44.573Z,48.20
2019-04-04T19:05:16.047Z,49.10
2019-04-04T19:07:48.043Z,48.70
2019-04-04T19:10:20.167Z,48.90
2019-04-04T19:13:04.483Z,49.10
2019-04-04T19:15:26.715Z,49.10
2019-04-04T19:17:58.369Z,49.40
2019-04-04T19:20:30.139Z,49.60
2019-04-04T19:23:02.988Z,49.40
2019-04-04T19:25:35.000Z,49.50
2019-04-04T19:28:07.277Z,49.60
2019-04-04T19:30:39.231Z,49.50
2019-04-04T19:33:09.858Z,49.80
2019-04-04T19:35:41.486Z,49.80
2019-04-04T19:38:11.712Z,50.00
2019-04-04T19:40:42.924Z,50.10
2019-04-04T19:43:18.261Z,50.00
2019-04-04T19:45:48.084Z,50.10
2019-04-04T19:48:18.231Z,50.00
2019-04-04T19:50:50.728Z,50.20
2019-04-04T19:53:22.451Z,50.10
2019-04-04T19:55:53.741Z,49.80
2019-04-04T19:58:25.363Z,50.30
2019-04-04T20:00:56.628Z,50.40
2019-04-04T20:03:28.245Z,50.60
2019-04-04T20:06:00.341Z,50.10
2019-04-04T20:08:31.699Z,50.20
2019-04-04T20:11:03.100Z,50.20
2019-04-04T20:13:34.608Z,50.40
2019-04-04T20:16:06.246Z,50.30
2019-04-04T20:18:37.665Z,50.40
2019-04-04T20:21:10.779Z,50.40
2019-04-04T20:23:43.381Z,50.50
2019-04-04T20:26:15.043Z,50.80
2019-04-04T20:28:46.358Z,50.30
2019-04-04T20:31:17.630Z,50.30
2019-04-04T20:34:00.843Z,50.40
2019-04-04T20:36:23.263Z,50.50
2019-04-04T20:38:56.287Z,50.40
2019-04-04T20:41:27.828Z,50.70
2019-04-04T20:43:59.121Z,50.90
2019-04-04T20:46:42.396Z,50.80
2019-04-04T20:49:15.314Z,50.50
2019-04-04T20:51:47.191Z,50.70
2019-04-04T20:54:18.852Z,50.00
2019-04-04T20:56:50.922Z,48.40
2019-04-04T20:59:22.259Z,46.60
2019-04-04T21:01:53.509Z,43.80
2019-04-04T21:04:25.327Z,45.00
2019-04-04T21:06:56.050Z,42.70
2019-04-04T21:09:27.702Z,43.80
2019-04-04T21:12:00.274Z,45.30
2019-04-04T21:14:32.295Z,46.70
2019-04-04T21:17:04.293Z,47.30
2019-04-04T21:19:35.642Z,47.40
2019-04-04T21:22:08.635Z,47.70
2019-04-04T21:24:40.233Z,48.40
2019-04-04T21:27:12.816Z,48.50
2019-04-04T21:29:45.394Z,49.20
2019-04-04T21:32:17.151Z,49.20
2019-04-04T21:34:51.351Z,49.40
2019-04-04T21:37:22.980Z,50.20
2019-04-04T21:39:54.745Z,49.60
2019-04-04T21:42:26.761Z,49.90
2019-04-04T21:44:58.312Z,49.90
2019-04-04T21:47:30.026Z,49.90
2019-04-04T21:50:01.542Z,49.80
2019-04-04T21:52:34.039Z,50.10
2019-04-04T21:55:06.749Z,50.00
2019-04-04T21:57:38.258Z,50.10
2019-04-04T22:00:10.600Z,49.90
2019-04-04T22:02:44.493Z,50.00
2019-04-04T22:05:16.763Z,50.10
2019-04-04T22:07:48.628Z,49.90
2019-04-04T22:10:20.245Z,49.90
2019-04-04T22:12:52.357Z,50.20
2019-04-04T22:15:24.030Z,50.30
2019-04-04T22:17:54.464Z,50.40
2019-04-04T22:20:25.931Z,50.30
2019-04-04T22:22:57.255Z,50.40
2019-04-04T22:25:28.466Z,50.10
2019-04-04T22:28:00.118Z,50.10
2019-04-04T22:30:32.076Z,50.40
2019-04-04T22:33:03.592Z,50.30
2019-04-04T22:35:36.426Z,50.70
2019-04-04T22:38:06.601Z,50.80
2019-04-04T22:40:37.637Z,50.60
2019-04-04T22:43:09.884Z,50.90
2019-04-04T22:45:41.147Z,51.00
2019-04-04T22:48:12.416Z,50.80
2019-04-04T22:50:43.673Z,50.70
2019-04-04T22:53:15.126Z,50.70
2019-04-04T22:55:46.333Z,50.50
2019-04-04T22:58:27.619Z,50.90
2019-04-04T23:00:51.405Z,50.80
2019-04-04T23:03:24.935Z,51.00
2019-04-04T23:05:56.228Z,50.90
2019-04-04T23:08:27.418Z,50.70
2019-04-04T23:10:58.651Z,50.90
2019-04-04T23:13:29.944Z,51.10
2019-04-04T23:16:01.487Z,50.90
2019-04-04T23:18:33.066Z,50.50
2019-04-04T23:21:04.256Z,50.70
2019-04-04T23:23:35.551Z,50.90
2019-04-04T23:26:06.751Z,51.20
2019-04-04T23:28:38.657Z,51.40
2019-04-04T23:31:08.770Z,51.30
2019-04-04T23:33:39.861Z,51.40
2019-04-04T23:36:11.234Z,51.60
2019-04-04T23:38:42.456Z,51.40
2019-04-04T23:41:13.694Z,51.80
2019-04-04T23:43:45.175Z,51.60
2019-04-04T23:46:16.408Z,51.80
2019-04-04T23:48:48.677Z,51.60
2019-04-04T23:51:19.855Z,51.60
2019-04-04T23:53:51.551Z,51.70
2019-04-04T23:56:22.810Z,51.90
2019-04-04T23:58:54.067Z,52.00
